Time;durP1;ratioP1;P1;durP2;ratioP2;P2;SDS_P1;SDS_P2;PMS_P1;PMS_P2;Temp;Humidity;BMP_temperature;BMP_pressure;BME280_temperature;BME280_humidity;BME280_pressure;Samples;Min_cycle;Max_cycle;Signal;HPM_P1;HPM_P2
2023/12/15 00:00:43;;;;;;;16.83;6.40;;;6.80;99.90;;;;;;5076303;28;20021;-77
2023/12/15 00:03:08;;;;;;;17.05;6.68;;;6.90;99.90;;;;;;5077202;28;20419;-77
2023/12/15 00:05:34;;;;;;;26.15;8.02;;;6.90;99.90;;;;;;5077223;28;20020;-77
2023/12/15 00:07:59;;;;;;;24.33;8.98;;;6.90;99.90;;;;;;5077571;28;20032;-77
2023/12/15 00:10:25;;;;;;;20.75;8.20;;;6.90;99.90;;;;;;5076750;28;20078;-77
2023/12/15 00:12:51;;;;;;;23.40;8.35;;;6.80;99.90;;;;;;5077941;28;20107;-77
2023/12/15 00:15:17;;;;;;;19.88;9.07;;;6.90;99.90;;;;;;5077404;28;20467;-77
2023/12/15 00:17:43;;;;;;;25.08;9.80;;;6.80;99.90;;;;;;5077849;28;20050;-77
2023/12/15 00:20:09;;;;;;;25.75;10.70;;;6.70;99.90;;;;;;5078066;28;20407;-77
2023/12/15 00:22:34;;;;;;;26.45;10.05;;;6.80;99.90;;;;;;5078432;28;20022;-77
2023/12/15 00:25:00;;;;;;;25.90;10.98;;;6.80;99.90;;;;;;5077455;28;20056;-78
2023/12/15 00:27:25;;;;;;;28.65;11.50;;;7.70;99.90;;;;;;5076432;28;20145;-78
2023/12/15 00:29:51;;;;;;;25.95;10.68;;;6.80;99.90;;;;;;5076526;28;20025;-77
2023/12/15 00:32:16;;;;;;;24.38;11.23;;;6.90;99.90;;;;;;5077196;28;20134;-77
2023/12/15 00:34:42;;;;;;;24.30;10.88;;;6.80;99.90;;;;;;5077600;28;20095;-77
2023/12/15 00:37:07;;;;;;;27.67;10.70;;;6.80;99.90;;;;;;5075865;28;20499;-77
2023/12/15 00:39:39;;;;;;;24.63;11.13;;;6.80;99.90;;;;;;5077336;28;20028;-77
2023/12/15 00:42:05;;;;;;;25.27;11.15;;;6.80;99.90;;;;;;5075491;28;20024;-77
2023/12/15 00:44:32;;;;;;;28.73;11.90;;;6.80;99.90;;;;;;5075685;28;20040;-78
2023/12/15 00:46:58;;;;;;;29.38;10.68;;;6.80;99.90;;;;;;5076362;28;20028;-78
2023/12/15 00:49:24;;;;;;;33.13;12.30;;;6.90;99.90;;;;;;5075753;28;20464;-78
2023/12/15 00:51:49;;;;;;;28.33;10.75;;;7.00;99.90;;;;;;5073110;28;20028;-76
2023/12/15 00:54:15;;;;;;;28.15;11.55;;;7.00;99.90;;;;;;5072719;28;20029;-76
2023/12/15 00:56:40;;;;;;;35.15;11.48;;;7.00;99.90;;;;;;5074844;28;20023;-75
2023/12/15 00:59:06;;;;;;;30.05;12.07;;;7.00;99.90;;;;;;5074928;28;20052;-77
2023/12/15 01:01:32;;;;;;;33.60;11.80;;;7.00;99.90;;;;;;5074980;28;20048;-75
2023/12/15 01:03:57;;;;;;;34.05;12.05;;;7.00;99.90;;;;;;5073095;28;20509;-76
2023/12/15 01:06:23;;;;;;;34.78;12.98;;;7.00;99.90;;;;;;5072532;28;20028;-77
2023/12/15 01:08:49;;;;;;;31.55;11.98;;;7.70;99.90;;;;;;5075498;28;20029;-78
2023/12/15 01:11:14;;;;;;;26.38;11.43;;;6.80;99.90;;;;;;5074457;28;20016;-77
2023/12/15 01:13:40;;;;;;;43.17;12.40;;;8.20;99.90;;;;;;5073658;28;20386;-78
2023/12/15 01:16:06;;;;;;;34.47;13.55;;;6.80;99.90;;;;;;5074042;28;20027;-77
2023/12/15 01:18:31;;;;;;;29.80;10.93;;;6.90;99.90;;;;;;5074563;28;20058;-77
2023/12/15 01:20:57;;;;;;;30.38;12.35;;;6.90;99.90;;;;;;5076937;28;20032;-77
2023/12/15 01:23:23;;;;;;;28.00;11.50;;;6.90;99.90;;;;;;5075760;28;20032;-77
2023/12/15 01:25:48;;;;;;;35.15;11.90;;;6.80;99.90;;;;;;5076762;28;20055;-77
2023/12/15 01:28:14;;;;;;;32.70;12.30;;;6.90;99.90;;;;;;5076041;28;20020;-77
2023/12/15 01:30:39;;;;;;;27.65;11.13;;;6.90;99.90;;;;;;5076897;28;20035;-77
2023/12/15 01:33:05;;;;;;;34.08;13.02;;;6.90;99.90;;;;;;5077584;28;20020;-77
2023/12/15 01:35:31;;;;;;;30.92;12.13;;;7.00;99.90;;;;;;5075407;28;20081;-78
2023/12/15 01:37:56;;;;;;;32.40;12.15;;;7.00;99.90;;;;;;5076843;28;20053;-77
2023/12/15 01:40:22;;;;;;;35.17;11.57;;;6.80;99.90;;;;;;5076930;28;20058;-77
2023/12/15 01:42:48;;;;;;;36.75;12.27;;;;;;;;;;5075422;28;20025;-78
2023/12/15 01:45:13;;;;;;;40.80;12.73;;;7.00;99.90;;;;;;5075776;28;20039;-77
2023/12/15 01:47:39;;;;;;;30.02;11.90;;;7.00;99.90;;;;;;5075336;28;20025;-77
2023/12/15 01:50:07;;;;;;;41.03;12.98;;;7.00;99.90;;;;;;5075509;28;20100;-77
2023/12/15 01:52:33;;;;;;;32.42;13.50;;;7.00;99.90;;;;;;5075692;28;20020;-77
2023/12/15 01:54:58;;;;;;;41.17;14.05;;;7.00;99.90;;;;;;5075210;28;20545;-77
2023/12/15 01:57:24;;;;;;;31.30;11.77;;;7.00;99.90;;;;;;5075740;28;20016;-77
2023/12/15 01:59:49;;;;;;;31.92;12.52;;;7.00;99.90;;;;;;5076787;28;20028;-77
2023/12/15 02:02:16;;;;;;;36.35;12.73;;;7.00;99.90;;;;;;5076425;28;20032;-77
2023/12/15 02:04:42;;;;;;;31.48;12.30;;;7.00;99.90;;;;;;5077154;28;20021;-77
2023/12/15 02:07:08;;;;;;;34.55;12.55;;;7.00;99.90;;;;;;5076339;28;20028;-77
2023/12/15 02:09:33;;;;;;;38.17;12.38;;;7.10;99.90;;;;;;5075710;28;20035;-78
2023/12/15 02:11:59;;;;;;;30.92;12.52;;;7.00;99.90;;;;;;5075342;28;20029;-77
2023/12/15 02:14:25;;;;;;;32.13;12.15;;;7.10;99.90;;;;;;5075188;28;20013;-78
2023/12/15 02:16:50;;;;;;;39.38;12.85;;;7.00;99.90;;;;;;5075917;28;20027;-77
2023/12/15 02:19:16;;;;;;;27.95;11.20;;;7.00;99.90;;;;;;5075283;28;20021;-77
2023/12/15 02:21:41;;;;;;;33.38;12.82;;;7.00;99.90;;;;;;5076320;28;20025;-77
2023/12/15 02:24:07;;;;;;;39.60;12.98;;;7.10;99.90;;;;;;5076448;28;20032;-77
2023/12/15 02:26:32;;;;;;;34.53;13.05;;;7.10;99.90;;;;;;5074680;28;20078;-78
2023/12/15 02:28:58;;;;;;;34.53;12.85;;;7.10;99.90;;;;;;5074616;28;20041;-77
2023/12/15 02:31:24;;;;;;;39.22;10.35;;;7.00;99.90;;;;;;5075241;28;20021;-77
2023/12/15 02:33:52;;;;;;;34.67;11.93;;;7.00;99.90;;;;;;5078188;28;20070;-77
2023/12/15 02:36:22;;;;;;;35.90;13.32;;;7.00;99.90;;;;;;5077849;28;20479;-77
2023/12/15 02:38:48;;;;;;;32.88;11.63;;;7.20;99.90;;;;;;5076670;28;20077;-77
2023/12/15 02:41:14;;;;;;;32.53;12.63;;;8.60;99.90;;;;;;5077749;28;20029;-77
2023/12/15 02:43:40;;;;;;;37.17;13.05;;;7.00;99.90;;;;;;5077178;28;20034;-78
2023/12/15 02:46:06;;;;;;;33.45;11.32;;;7.00;99.90;;;;;;5076326;28;20060;-77
2023/12/15 02:48:32;;;;;;;31.50;13.63;;;7.00;99.90;;;;;;5074839;28;20074;-76
2023/12/15 02:50:58;;;;;;;34.55;11.63;;;7.00;99.90;;;;;;5076483;28;20032;-76
2023/12/15 02:53:24;;;;;;;34.53;12.05;;;7.00;99.90;;;;;;5076173;28;20021;-78
2023/12/15 02:55:49;;;;;;;30.67;11.35;;;6.90;99.90;;;;;;5078091;28;20013;-77
2023/12/15 02:58:18;;;;;;;34.90;11.90;;;6.90;99.90;;;;;;5077228;28;20024;-78
2023/12/15 03:00:44;;;;;;;35.50;12.55;;;7.00;99.90;;;;;;5079114;28;20036;-77
2023/12/15 03:03:09;;;;;;;33.80;13.05;;;6.90;99.90;;;;;;5075756;28;20499;-76
2023/12/15 03:05:35;;;;;;;32.35;11.75;;;7.00;99.90;;;;;;5076129;28;20426;-76
2023/12/15 03:08:01;;;;;;;39.47;12.60;;;7.00;99.90;;;;;;5078349;28;20029;-76
2023/12/15 03:10:27;;;;;;;24.60;10.80;;;7.00;99.90;;;;;;5077949;28;20032;-77
2023/12/15 03:12:53;;;;;;;33.40;12.40;;;;;;;;;;5078378;28;20025;-77
2023/12/15 03:15:19;;;;;;;32.75;12.63;;;7.00;99.90;;;;;;5078263;28;20027;-78
2023/12/15 03:17:45;;;;;;;27.92;12.48;;;;;;;;;;5076907;28;20052;-77
2023/12/15 03:20:10;;;;;;;42.60;12.60;;;7.00;99.90;;;;;;5075643;28;20387;-77
2023/12/15 03:22:37;;;;;;;36.67;12.75;;;7.00;99.90;;;;;;5074761;28;20035;-77
2023/12/15 03:25:05;;;;;;;32.88;11.55;;;7.00;99.90;;;;;;5077488;28;20398;-77
2023/12/15 03:27:30;;;;;;;34.55;12.02;;;7.00;99.90;;;;;;5076974;28;20028;-78
2023/12/15 03:29:56;;;;;;;30.70;12.57;;;7.00;99.90;;;;;;5075966;28;20043;-77
2023/12/15 03:32:22;;;;;;;29.83;12.10;;;7.00;99.90;;;;;;5076317;28;20025;-77
2023/12/15 03:34:47;;;;;;;33.75;11.40;;;7.00;99.90;;;;;;5074959;28;20028;-75
2023/12/15 03:37:13;;;;;;;30.85;12.52;;;7.00;99.90;;;;;;5075941;28;20383;-75
2023/12/15 03:39:38;;;;;;;28.98;11.60;;;7.00;99.90;;;;;;5076240;28;20051;-77
2023/12/15 03:42:07;;;;;;;30.00;10.82;;;7.10;99.90;;;;;;5074763;28;20048;-76
2023/12/15 03:44:39;;;;;;;30.45;10.90;;;7.10;99.90;;;;;;5074936;28;20032;-77
2023/12/15 03:47:06;;;;;;;26.50;10.57;;;7.10;99.90;;;;;;5075352;28;20099;-77
2023/12/15 03:49:33;;;;;;;37.00;11.75;;;7.10;99.90;;;;;;5076220;28;20028;-78
2023/12/15 03:51:58;;;;;;;24.30;10.82;;;9.00;99.90;;;;;;5076032;28;20058;-78
2023/12/15 03:54:24;;;;;;;26.77;10.95;;;7.10;99.90;;;;;;5074553;28;20467;-77
2023/12/15 03:56:55;;;;;;;29.05;11.00;;;7.10;99.90;;;;;;5076313;28;20021;-78
2023/12/15 03:59:21;;;;;;;32.63;11.02;;;7.10;99.90;;;;;;5074040;28;20025;-78
2023/12/15 04:01:46;;;;;;;26.25;10.20;;;7.10;99.90;;;;;;5076270;28;20024;-76
2023/12/15 04:04:12;;;;;;;22.88;10.32;;;7.10;99.90;;;;;;5075474;28;20056;-78
2023/12/15 04:06:38;;;;;;;21.20;8.65;;;9.50;99.90;;;;;;5074666;28;20032;-76
2023/12/15 04:09:03;;;;;;;26.40;10.32;;;7.10;99.90;;;;;;5076982;28;20032;-76
2023/12/15 04:11:29;;;;;;;25.38;9.70;;;7.10;99.90;;;;;;5075909;28;20507;-77
2023/12/15 04:13:54;;;;;;;27.25;9.45;;;7.10;99.90;;;;;;5075646;28;20017;-77
2023/12/15 04:16:20;;;;;;;21.70;8.80;;;7.10;99.90;;;;;;5077713;28;20023;-77
2023/12/15 04:18:45;;;;;;;25.10;9.57;;;7.10;99.90;;;;;;5078135;28;20048;-77
2023/12/15 04:21:11;;;;;;;29.20;9.10;;;7.10;99.90;;;;;;5077382;28;20060;-78
2023/12/15 04:23:36;;;;;;;25.83;9.80;;;7.20;99.90;;;;;;5076730;28;20048;-77
2023/12/15 04:26:02;;;;;;;19.38;9.07;;;7.10;99.90;;;;;;5076849;28;20032;-77
2023/12/15 04:28:28;;;;;;;20.02;9.15;;;7.20;99.90;;;;;;5075970;28;20028;-78
2023/12/15 04:30:53;;;;;;;25.45;8.63;;;7.10;99.90;;;;;;5073456;28;20442;-76
2023/12/15 04:33:19;;;;;;;24.52;8.65;;;7.10;99.90;;;;;;5073056;28;20143;-77
2023/12/15 04:35:44;;;;;;;35.00;10.05;;;7.20;99.90;;;;;;5074641;28;20043;-77
2023/12/15 04:38:10;;;;;;;23.13;9.10;;;7.10;99.90;;;;;;5073350;28;20361;-76
2023/12/15 04:40:35;;;;;;;21.35;8.73;;;7.20;99.90;;;;;;5075505;28;20040;-77
2023/12/15 04:43:01;;;;;;;22.77;8.57;;;7.20;99.90;;;;;;5073900;28;20029;-77
2023/12/15 04:45:26;;;;;;;24.73;8.10;;;7.20;99.90;;;;;;5074133;28;20480;-76
2023/12/15 04:47:54;;;;;;;19.15;7.47;;;7.10;99.90;;;;;;5073377;28;20020;-78
2023/12/15 04:50:20;;;;;;;21.30;8.27;;;7.10;99.90;;;;;;5072552;28;20112;-76
2023/12/15 04:52:46;;;;;;;23.80;7.82;;;7.20;99.90;;;;;;5073438;28;20056;-78
2023/12/15 04:55:11;;;;;;;25.83;7.50;;;7.30;99.90;;;;;;5073907;28;20111;-75
2023/12/15 04:57:37;;;;;;;25.52;7.78;;;7.30;99.90;;;;;;5073242;28;20056;-77
2023/12/15 05:00:04;;;;;;;25.05;7.57;;;7.30;99.90;;;;;;5074978;28;20494;-77
2023/12/15 05:02:29;;;;;;;15.50;6.40;;;7.30;99.90;;;;;;5074316;28;20484;-76
2023/12/15 05:04:55;;;;;;;29.40;7.63;;;8.70;99.90;;;;;;5072858;28;20111;-77
2023/12/15 05:07:20;;;;;;;17.08;7.15;;;7.30;99.90;;;;;;5072395;28;20119;-76
2023/12/15 05:09:49;;;;;;;17.58;7.00;;;7.20;99.90;;;;;;5072786;28;20032;-77
2023/12/15 05:12:14;;;;;;;22.50;6.35;;;7.20;99.90;;;;;;5075412;28;20499;-77
2023/12/15 05:14:40;;;;;;;19.35;6.80;;;7.30;99.90;;;;;;5073911;28;20016;-78
2023/12/15 05:17:05;;;;;;;21.80;7.20;;;7.30;99.90;;;;;;5074509;28;20031;-77
2023/12/15 05:19:31;;;;;;;20.15;7.80;;;7.30;99.90;;;;;;5074397;28;20051;-77
2023/12/15 05:21:57;;;;;;;22.75;8.20;;;7.30;99.90;;;;;;5075517;28;20017;-78
2023/12/15 05:24:23;;;;;;;21.67;7.45;;;7.30;99.90;;;;;;5073836;28;20023;-78
2023/12/15 05:26:48;;;;;;;21.48;6.30;;;8.50;99.90;;;;;;5073619;28;20028;-76
2023/12/15 05:29:14;;;;;;;19.27;7.72;;;7.30;99.90;;;;;;5073488;28;20017;-78
2023/12/15 05:31:39;;;;;;;24.55;6.63;;;7.30;99.90;;;;;;5073038;28;20077;-78
2023/12/15 05:34:05;;;;;;;19.35;6.95;;;7.20;99.90;;;;;;5072810;28;20021;-78
2023/12/15 05:36:31;;;;;;;28.42;6.85;;;7.20;99.90;;;;;;5074103;28;20107;-77
2023/12/15 05:38:56;;;;;;;22.50;7.10;;;7.30;99.90;;;;;;5075056;28;20032;-77
2023/12/15 05:41:22;;;;;;;19.05;7.38;;;7.30;99.90;;;;;;5073018;28;20511;-76
2023/12/15 05:43:50;;;;;;;22.27;6.10;;;7.30;99.90;;;;;;5073052;28;20388;-75
2023/12/15 05:46:17;;;;;;;20.65;6.88;;;7.30;99.90;;;;;;5072778;28;20092;-75
2023/12/15 05:48:43;;;;;;;23.08;6.85;;;7.30;99.90;;;;;;5074916;28;20383;-75
2023/12/15 05:51:08;;;;;;;19.88;6.72;;;7.30;99.90;;;;;;5073780;28;20100;-77
2023/12/15 05:53:34;;;;;;;17.90;5.85;;;7.30;99.90;;;;;;5073140;28;20480;-75
2023/12/15 05:55:59;;;;;;;19.17;6.53;;;7.30;99.90;;;;;;5073852;28;20070;-77
2023/12/15 05:58:25;;;;;;;14.50;6.05;;;7.30;99.90;;;;;;5073212;28;20021;-77
2023/12/15 06:00:50;;;;;;;15.63;6.65;;;7.30;99.90;;;;;;5073267;28;20025;-78
2023/12/15 06:03:17;;;;;;;15.73;5.43;;;7.30;99.90;;;;;;5076111;28;20032;-77
2023/12/15 06:05:43;;;;;;;13.65;5.32;;;7.30;99.90;;;;;;5074808;28;20430;-77
2023/12/15 06:08:13;;;;;;;16.40;6.03;;;7.30;99.90;;;;;;5076224;28;20419;-77
2023/12/15 06:10:39;;;;;;;20.77;6.88;;;7.30;99.90;;;;;;5077744;28;20044;-77
2023/12/15 06:13:06;;;;;;;14.65;5.90;;;7.30;99.90;;;;;;5076744;28;20020;-78
2023/12/15 06:15:31;;;;;;;21.23;5.78;;;7.30;99.90;;;;;;5076315;28;20044;-76
2023/12/15 06:17:57;;;;;;;17.13;5.72;;;7.30;99.90;;;;;;5076912;28;20094;-78
2023/12/15 06:20:23;;;;;;;17.90;5.70;;;7.30;99.90;;;;;;5077456;28;20559;-78
2023/12/15 06:22:48;;;;;;;13.15;4.88;;;7.30;99.90;;;;;;5077971;28;20100;-78
2023/12/15 06:25:14;;;;;;;17.73;6.55;;;7.30;99.90;;;;;;5076096;28;20067;-77
2023/12/15 06:27:39;;;;;;;16.30;4.97;;;7.30;99.90;;;;;;5076881;28;20063;-76
2023/12/15 06:30:05;;;;;;;18.77;5.28;;;7.30;99.90;;;;;;5076193;28;20025;-77
2023/12/15 06:32:31;;;;;;;26.00;5.78;;;7.30;99.90;;;;;;5077400;28;20043;-78
2023/12/15 06:34:56;;;;;;;15.13;5.50;;;9.60;99.90;;;;;;5077061;28;20017;-76
2023/12/15 06:37:22;;;;;;;21.75;5.20;;;7.40;99.90;;;;;;5077103;28;20047;-77
2023/12/15 06:39:49;;;;;;;16.20;5.57;;;7.50;99.90;;;;;;5077203;28;20517;-77
2023/12/15 06:42:15;;;;;;;24.85;6.22;;;7.40;99.90;;;;;;5075208;28;20028;-78
2023/12/15 06:44:41;;;;;;;11.73;5.28;;;7.40;99.90;;;;;;5075243;28;20017;-76
2023/12/15 06:47:06;;;;;;;15.45;5.13;;;7.50;99.90;;;;;;5076366;28;20041;-77
2023/12/15 06:49:32;;;;;;;20.08;4.97;;;7.40;99.90;;;;;;5077171;28;20021;-77
2023/12/15 06:51:58;;;;;;;15.30;5.20;;;7.40;99.90;;;;;;5079113;28;20023;-77
2023/12/15 06:54:24;;;;;;;18.15;5.30;;;7.50;99.90;;;;;;5077583;28;20100;-77
2023/12/15 06:56:50;;;;;;;21.33;5.65;;;7.40;99.90;;;;;;5079041;28;20048;-77
2023/12/15 06:59:15;;;;;;;17.42;5.05;;;7.40;99.90;;;;;;5077257;28;20103;-78
2023/12/15 07:01:41;;;;;;;13.20;4.35;;;7.50;99.90;;;;;;5077504;28;20025;-77
2023/12/15 07:04:06;;;;;;;23.55;6.35;;;7.40;99.90;;;;;;5077468;28;20104;-77
2023/12/15 07:06:32;;;;;;;20.45;5.18;;;7.50;99.90;;;;;;5077034;28;20016;-77
2023/12/15 07:08:59;;;;;;;22.60;4.93;;;;;;;;;;5077960;28;20036;-77
2023/12/15 07:11:24;;;;;;;18.25;5.85;;;7.50;99.90;;;;;;5075256;28;20094;-77
2023/12/15 07:13:50;;;;;;;15.10;4.40;;;7.50;99.90;;;;;;5076581;28;20025;-77
2023/12/15 07:16:16;;;;;;;15.52;4.32;;;7.50;99.90;;;;;;5076054;28;20077;-78
2023/12/15 07:18:42;;;;;;;20.65;4.63;;;7.50;99.90;;;;;;5074407;28;20484;-77
2023/12/15 07:21:08;;;;;;;17.50;4.88;;;7.50;99.90;;;;;;5076444;28;20117;-77
2023/12/15 07:23:34;;;;;;;22.65;5.93;;;7.40;99.90;;;;;;5077021;28;20036;-78
2023/12/15 07:26:00;;;;;;;17.77;6.47;;;;;;;;;;5076895;28;20027;-78
2023/12/15 07:28:26;;;;;;;15.98;4.93;;;7.50;99.90;;;;;;5078213;28;20020;-77
2023/12/15 07:30:51;;;;;;;16.48;4.70;;;7.50;99.90;;;;;;5076494;28;20035;-77
2023/12/15 07:33:17;;;;;;;26.05;4.55;;;7.50;99.90;;;;;;5078177;28;20076;-77
2023/12/15 07:35:42;;;;;;;21.58;6.18;;;7.50;99.90;;;;;;5076738;28;20025;-78
2023/12/15 07:38:09;;;;;;;15.30;4.07;;;7.50;99.90;;;;;;5076140;28;20029;-77
2023/12/15 07:40:35;;;;;;;13.98;3.97;;;7.50;99.90;;;;;;5077159;28;20322;-77
2023/12/15 07:43:00;;;;;;;16.40;4.47;;;7.50;99.90;;;;;;5077252;28;20141;-78
2023/12/15 07:45:26;;;;;;;15.10;4.40;;;7.50;99.90;;;;;;5077832;28;20028;-77
2023/12/15 07:47:53;;;;;;;20.58;4.78;;;7.50;99.90;;;;;;5078080;28;20098;-77
2023/12/15 07:50:20;;;;;;;21.42;4.32;;;7.50;99.90;;;;;;5077635;28;20027;-77
2023/12/15 07:52:45;;;;;;;15.75;4.32;;;7.50;99.90;;;;;;5077686;28;20392;-77
2023/12/15 07:55:11;;;;;;;17.52;5.32;;;7.50;99.90;;;;;;5077716;28;20028;-77
2023/12/15 07:57:36;;;;;;;14.45;4.15;;;7.50;99.90;;;;;;5076493;28;20048;-77
2023/12/15 08:00:02;;;;;;;17.35;4.05;;;7.60;99.90;;;;;;5078012;28;20017;-77
2023/12/15 08:02:28;;;;;;;15.98;3.90;;;7.60;99.90;;;;;;5076413;28;20483;-78
2023/12/15 08:04:53;;;;;;;12.82;4.13;;;7.50;99.90;;;;;;5077043;28;20396;-77
2023/12/15 08:07:19;;;;;;;17.42;3.90;;;7.60;99.90;;;;;;5077612;28;20031;-77
2023/12/15 08:09:44;;;;;;;14.05;3.75;;;7.60;99.90;;;;;;5075640;28;20040;-77
2023/12/15 08:12:10;;;;;;;11.32;3.55;;;7.60;99.90;;;;;;5075327;28;20021;-77
2023/12/15 08:14:35;;;;;;;18.20;5.00;;;7.60;99.90;;;;;;5075384;28;20123;-78
2023/12/15 08:17:01;;;;;;;18.98;4.63;;;7.60;99.90;;;;;;5075536;28;20016;-77
2023/12/15 08:19:29;;;;;;;11.48;3.28;;;7.70;99.90;;;;;;5077136;28;20120;-77
2023/12/15 08:21:54;;;;;;;16.27;3.83;;;7.70;99.90;;;;;;5077395;28;20095;-77
2023/12/15 08:24:20;;;;;;;18.45;4.05;;;7.70;99.90;;;;;;5076888;28;20048;-78
2023/12/15 08:26:45;;;;;;;28.35;3.95;;;7.70;99.90;;;;;;5075715;28;20384;-77
2023/12/15 08:29:14;;;;;;;17.80;4.15;;;7.70;99.90;;;;;;5075977;28;20426;-77
2023/12/15 08:31:39;;;;;;;17.85;4.60;;;7.70;99.90;;;;;;5074229;28;20472;-77
2023/12/15 08:34:05;;;;;;;14.63;3.13;;;7.70;99.90;;;;;;5075311;28;20024;-77
2023/12/15 08:36:30;;;;;;;14.05;3.25;;;7.80;99.90;;;;;;5075033;28;20025;-76
2023/12/15 08:38:56;;;;;;;15.40;3.47;;;7.80;99.90;;;;;;5075316;28;20498;-76
2023/12/15 08:41:21;;;;;;;18.52;3.72;;;7.80;99.90;;;;;;5074306;28;20020;-76
2023/12/15 08:43:48;;;;;;;11.25;2.70;;;7.80;99.90;;;;;;5074163;28;20224;-76
2023/12/15 08:46:13;;;;;;;19.33;3.85;;;7.90;99.90;;;;;;5072609;28;20027;-76
2023/12/15 08:48:39;;;;;;;20.58;3.38;;;7.90;99.90;;;;;;5073820;28;20016;-76
2023/12/15 08:51:04;;;;;;;19.65;3.80;;;7.90;99.90;;;;;;5073922;28;20017;-77
2023/12/15 08:53:30;;;;;;;16.70;3.78;;;7.90;99.90;;;;;;5073716;28;20032;-76
2023/12/15 08:55:56;;;;;;;13.82;3.05;;;8.00;99.90;;;;;;5073545;28;20023;-76
2023/12/15 08:58:23;;;;;;;18.48;4.07;;;8.00;99.90;;;;;;5074117;28;20052;-76
2023/12/15 09:00:49;;;;;;;22.95;3.95;;;8.00;99.90;;;;;;5072364;28;20028;-77
2023/12/15 09:03:14;;;;;;;11.65;3.35;;;8.00;99.90;;;;;;5072307;28;20016;-76
2023/12/15 09:05:40;;;;;;;15.40;2.30;;;8.10;99.90;;;;;;5073343;28;20028;-76
2023/12/15 09:08:06;;;;;;;13.55;3.40;;;8.10;99.90;;;;;;5073217;28;20028;-76
2023/12/15 09:10:34;;;;;;;14.82;2.65;;;8.20;99.90;;;;;;5073680;28;20031;-76
2023/12/15 09:13:02;;;;;;;18.23;2.73;;;8.20;99.90;;;;;;5073970;28;20012;-76
2023/12/15 09:15:29;;;;;;;;;;;8.20;99.90;;;;;;5073856;28;20028;-76
2023/12/15 09:17:54;;;;;;;16.85;2.72;;;8.30;99.90;;;;;;5072101;28;19904;-76
2023/12/15 09:20:20;;;;;;;18.08;2.70;;;8.30;99.90;;;;;;5072142;28;20476;-76
2023/12/15 09:22:46;;;;;;;19.13;4.10;;;8.40;99.90;;;;;;5073348;28;20033;-76
2023/12/15 09:25:12;;;;;;;16.10;2.75;;;8.50;99.90;;;;;;5073330;28;20108;-76
2023/12/15 09:27:38;;;;;;;9.88;1.83;;;8.50;99.90;;;;;;5073361;28;20103;-76
2023/12/15 09:30:04;;;;;;;17.92;3.88;;;8.50;99.90;;;;;;5073311;28;20028;-76
2023/12/15 09:32:29;;;;;;;17.55;2.72;;;8.50;99.90;;;;;;5073313;28;20086;-76
2023/12/15 09:34:55;;;;;;;8.32;1.98;;;8.60;99.90;;;;;;5072130;28;20017;-76
2023/12/15 09:37:20;;;;;;;15.50;3.08;;;8.60;99.90;;;;;;5072521;28;20032;-76
2023/12/15 09:39:46;;;;;;;16.38;1.95;;;8.70;99.90;;;;;;5073530;28;20099;-76
2023/12/15 09:42:11;;;;;;;13.80;2.28;;;8.70;99.90;;;;;;5075516;28;20035;-76
2023/12/15 09:44:37;;;;;;;8.98;1.60;;;8.70;99.90;;;;;;5077511;28;20028;-76
2023/12/15 09:47:03;;;;;;;14.55;3.55;;;8.80;99.90;;;;;;5078129;28;20024;-76
2023/12/15 09:49:31;;;;;;;14.75;3.08;;;8.80;99.90;;;;;;5075764;28;20112;-76
2023/12/15 09:52:01;;;;;;;20.75;2.83;;;8.80;99.90;;;;;;5077471;28;20497;-76
2023/12/15 09:54:27;;;;;;;14.90;2.70;;;8.80;99.90;;;;;;5077055;28;20024;-76
2023/12/15 09:56:53;;;;;;;18.70;3.10;;;8.90;99.90;;;;;;5076285;28;20390;-76
2023/12/15 09:59:19;;;;;;;12.38;2.13;;;8.90;99.90;;;;;;5077217;28;20108;-76
2023/12/15 10:01:45;;;;;;;11.18;2.35;;;8.80;99.90;;;;;;5077160;28;20043;-76
2023/12/15 10:04:10;;;;;;;10.02;2.83;;;8.90;99.90;;;;;;5077729;28;20028;-76
2023/12/15 10:06:37;;;;;;;10.38;2.13;;;9.30;99.90;;;;;;5077500;28;20029;-76
2023/12/15 10:09:11;;;;;;;9.77;2.13;;;9.10;99.90;;;;;;5076541;28;20029;-76
2023/12/15 10:11:37;;;;;;;10.35;2.05;;;9.10;99.90;;;;;;5075605;28;20067;-75
2023/12/15 10:14:11;;;;;;;13.38;2.85;;;9.20;99.90;;;;;;5076736;28;20021;-76
2023/12/15 10:16:37;;;;;;;9.05;1.67;;;9.20;99.90;;;;;;5075548;28;20104;-76
2023/12/15 10:19:12;;;;;;;7.40;1.98;;;9.30;99.90;;;;;;5076604;28;20465;-75
2023/12/15 10:21:38;;;;;;;14.30;2.40;;;9.30;99.90;;;;;;5076716;28;20024;-76
2023/12/15 10:24:24;;;;;;;15.15;2.03;;;9.30;99.90;;;;;;5076611;28;20031;-76
2023/12/15 10:26:50;;;;;;;15.35;1.90;;;9.30;99.90;;;;;;5076814;28;20070;-76
2023/12/15 10:29:20;;;;;;;12.00;1.92;;;9.30;99.90;;;;;;5075550;28;20487;-76
2023/12/15 10:31:49;;;;;;;12.20;1.83;;;9.40;99.90;;;;;;5076272;28;20096;-76
2023/12/15 10:34:15;;;;;;;15.63;2.53;;;9.40;99.90;;;;;;5076388;28;20020;-76
2023/12/15 10:36:44;;;;;;;12.55;1.63;;;9.40;99.90;;;;;;5076454;28;20100;-76
2023/12/15 10:39:15;;;;;;;8.15;1.60;;;9.50;99.90;;;;;;5076591;28;20028;-76
2023/12/15 10:41:42;;;;;;;12.43;0.75;;;9.40;99.90;;;;;;5075177;28;20078;-76
2023/12/15 10:44:11;;;;;;;14.15;1.35;;;9.50;99.90;;;;;;5074996;28;20572;-76
2023/12/15 10:46:39;;;;;;;10.88;2.25;;;9.40;99.90;;;;;;5075219;28;20574;-76
2023/12/15 10:49:06;;;;;;;14.57;1.67;;;9.50;99.90;;;;;;5075964;28;20519;-76
2023/12/15 10:51:33;;;;;;;9.35;1.35;;;9.50;99.90;;;;;;5076443;28;20415;-76
2023/12/15 10:54:01;;;;;;;11.85;1.60;;;9.40;99.90;;;;;;5074045;28;20065;-76
2023/12/15 10:56:26;;;;;;;10.63;1.38;;;9.50;99.90;;;;;;5076222;28;20032;-76
2023/12/15 10:58:53;;;;;;;11.27;2.65;;;9.50;99.90;;;;;;5075070;28;20395;-76
2023/12/15 11:01:22;;;;;;;10.38;1.52;;;9.60;99.90;;;;;;5076586;28;20025;-76
2023/12/15 11:03:48;;;;;;;9.70;1.35;;;9.60;99.90;;;;;;5076055;28;20468;-76
2023/12/15 11:06:24;;;;;;;6.72;0.82;;;9.60;99.90;;;;;;5075921;28;20081;-76
2023/12/15 11:08:49;;;;;;;15.85;1.00;;;9.60;99.90;;;;;;5076281;28;20029;-76
2023/12/15 11:11:22;;;;;;;17.50;1.10;;;9.60;99.90;;;;;;5076566;28;20088;-76
2023/12/15 11:14:14;;;;;;;13.10;1.83;;;9.70;99.90;;;;;;5076379;28;20437;-76
2023/12/15 11:16:39;;;;;;;8.23;1.25;;;9.70;99.90;;;;;;5076042;28;20458;-76
2023/12/15 11:19:09;;;;;;;11.40;1.67;;;9.80;99.90;;;;;;5075965;28;20044;-77
2023/12/15 11:21:36;;;;;;;12.77;1.95;;;9.90;99.90;;;;;;5075725;28;20117;-77
2023/12/15 11:24:04;;;;;;;11.45;1.10;;;9.80;99.90;;;;;;5075505;28;20035;-77
2023/12/15 11:26:37;;;;;;;11.65;0.80;;;9.90;99.90;;;;;;5074505;28;20117;-76
2023/12/15 11:29:11;;;;;;;8.63;0.57;;;9.90;99.90;;;;;;5075263;28;20017;-77
2023/12/15 11:31:40;;;;;;;8.57;0.68;;;9.90;99.90;;;;;;5076297;28;20025;-76
2023/12/15 11:34:07;;;;;;;7.57;1.02;;;10.00;99.90;;;;;;5075810;28;20530;-76
2023/12/15 11:36:42;;;;;;;7.22;0.73;;;10.00;99.90;;;;;;5074350;28;20028;-77
2023/12/15 11:39:12;;;;;;;14.38;0.65;;;10.00;99.90;;;;;;5075061;28;20039;-77
2023/12/15 11:41:42;;;;;;;5.88;0.55;;;10.00;99.90;;;;;;5077106;28;20028;-77
2023/12/15 11:44:08;;;;;;;10.25;1.38;;;10.00;99.90;;;;;;5075535;28;20033;-76
2023/12/15 11:46:33;;;;;;;16.77;2.15;;;10.00;99.90;;;;;;5075195;28;20472;-77
2023/12/15 11:49:02;;;;;;;5.32;0.35;;;10.00;99.90;;;;;;5076457;28;20070;-78
2023/12/15 11:51:31;;;;;;;9.90;1.52;;;10.10;99.90;;;;;;5075690;28;20384;-76
2023/12/15 11:54:00;;;;;;;4.35;0.63;;;10.10;99.90;;;;;;5076789;28;20043;-76
2023/12/15 11:56:27;;;;;;;6.88;0.65;;;10.20;99.90;;;;;;5076083;28;20017;-76
2023/12/15 11:58:53;;;;;;;5.30;1.00;;;10.20;99.90;;;;;;5075244;28;20051;-76
2023/12/15 12:01:18;;;;;;;10.20;1.10;;;10.30;99.90;;;;;;5075676;28;20024;-76
2023/12/15 12:03:44;;;;;;;9.82;0.60;;;10.30;99.90;;;;;;5075412;28;20025;-77
2023/12/15 12:06:10;;;;;;;5.50;1.40;;;10.30;99.90;;;;;;5075230;28;20044;-76
2023/12/15 12:08:36;;;;;;;7.65;0.40;;;10.30;99.90;;;;;;5074781;28;20491;-75
2023/12/15 12:11:04;;;;;;;7.25;0.13;;;10.20;99.90;;;;;;5075153;28;20052;-75
2023/12/15 12:13:32;;;;;;;8.85;0.90;;;10.20;99.90;;;;;;5074162;28;20032;-76
2023/12/15 12:15:57;;;;;;;13.73;1.92;;;10.20;99.90;;;;;;5074688;28;20101;-77
2023/12/15 12:18:25;;;;;;;4.53;1.10;;;10.40;99.90;;;;;;5073891;28;20063;-77
2023/12/15 12:20:56;;;;;;;8.27;0.70;;;10.20;99.90;;;;;;5075527;28;20025;-76
2023/12/15 12:23:23;;;;;;;9.55;1.70;;;10.30;99.90;;;;;;5075284;28;20106;-76
2023/12/15 12:25:51;;;;;;;4.70;0.35;;;10.20;99.90;;;;;;5074003;28;20016;-78
2023/12/15 12:28:21;;;;;;;4.50;0.25;;;10.30;99.90;;;;;;5073977;28;20025;-76
2023/12/15 12:30:48;;;;;;;10.52;1.73;;;;;;;;;;5075208;28;20024;-77
2023/12/15 12:33:14;;;;;;;4.85;0.25;;;10.30;99.90;;;;;;5075524;28;20021;-77
2023/12/15 12:35:39;;;;;;;7.80;0.38;;;10.40;99.90;;;;;;5075568;28;20024;-76
2023/12/15 12:38:06;;;;;;;9.85;0.68;;;10.50;99.90;;;;;;5074971;28;20020;-76
2023/12/15 12:40:32;;;;;;;8.25;1.10;;;10.60;99.90;;;;;;5074940;28;20020;-76